createdAt,value
2018-11-12T00:02:06.419Z,52.10
2018-11-12T00:04:32.243Z,52.00
2018-11-12T00:06:58.070Z,52.20
2018-11-12T00:09:24.293Z,52.20
2018-11-12T00:11:50.116Z,52.10
2018-11-12T00:14:16.342Z,52.20
2018-11-12T00:16:42.147Z,52.00
2018-11-12T00:19:07.966Z,52.00
2018-11-12T00:21:33.783Z,52.10
2018-11-12T00:24:00.019Z,52.20
2018-11-12T00:26:25.831Z,52.10
2018-11-12T00:28:51.652Z,52.20
2018-11-12T00:31:17.486Z,52.10
2018-11-12T00:33:43.694Z,52.20
2018-11-12T00:36:09.512Z,52.10
2018-11-12T00:38:35.333Z,52.10
2018-11-12T00:41:01.150Z,52.10
2018-11-12T00:43:26.958Z,52.10
2018-11-12T00:45:52.772Z,52.00
2018-11-12T00:48:18.601Z,52.00
2018-11-12T00:50:44.417Z,51.90
2018-11-12T00:53:10.236Z,52.00
2018-11-12T00:55:36.039Z,51.90
2018-11-12T00:58:01.868Z,52.10
2018-11-12T01:00:27.679Z,52.10
2018-11-12T01:02:53.494Z,52.00
2018-11-12T01:05:19.325Z,51.90
2018-11-12T01:07:45.139Z,52.00
2018-11-12T01:10:11.369Z,51.90
2018-11-12T01:12:37.184Z,52.10
2018-11-12T01:15:03.006Z,51.90
2018-11-12T01:17:28.811Z,52.00
2018-11-12T01:19:54.638Z,51.90
2018-11-12T01:22:20.447Z,51.90
2018-11-12T01:24:46.273Z,51.90
2018-11-12T01:27:12.079Z,52.10
2018-11-12T01:29:37.904Z,52.00
2018-11-12T01:32:03.728Z,52.00
2018-11-12T01:34:29.545Z,52.10
2018-11-12T01:36:55.358Z,52.60
2018-11-12T01:39:21.173Z,52.00
2018-11-12T01:41:47.005Z,52.00
2018-11-12T01:44:13.219Z,52.00
2018-11-12T01:46:39.041Z,51.90
2018-11-12T01:49:04.857Z,51.90
2018-11-12T01:51:30.664Z,51.90
2018-11-12T01:53:56.484Z,51.90
2018-11-12T01:56:22.315Z,52.00
2018-11-12T01:58:48.129Z,52.00
2018-11-12T02:01:14.346Z,52.10
2018-11-12T02:03:40.156Z,52.00
2018-11-12T02:06:05.990Z,51.90
2018-11-12T02:08:31.800Z,51.90
2018-11-12T02:10:58.020Z,51.90
2018-11-12T02:13:23.860Z,51.90
2018-11-12T02:15:50.067Z,51.90
2018-11-12T02:18:15.895Z,52.00
2018-11-12T02:20:41.709Z,51.90
2018-11-12T02:23:07.512Z,51.90
2018-11-12T02:25:33.343Z,51.90
2018-11-12T02:27:59.164Z,51.90
2018-11-12T02:30:24.998Z,51.90
2018-11-12T02:32:51.205Z,51.90
2018-11-12T02:35:17.024Z,52.00
2018-11-12T02:37:43.269Z,52.00
2018-11-12T02:40:09.487Z,52.10
2018-11-12T02:42:35.694Z,52.00
2018-11-12T02:45:01.515Z,52.10
2018-11-12T02:47:27.331Z,52.10
2018-11-12T02:49:53.150Z,52.10
2018-11-12T02:52:18.977Z,52.20
2018-11-12T02:54:44.796Z,52.10
2018-11-12T02:57:10.638Z,52.10
2018-11-12T02:59:36.838Z,52.10
2018-11-12T03:02:02.638Z,52.10
2018-11-12T03:04:28.467Z,52.10
2018-11-12T03:06:54.287Z,52.10
2018-11-12T03:09:20.108Z,52.20
2018-11-12T03:11:45.917Z,52.00
2018-11-12T03:14:11.740Z,52.10
2018-11-12T03:16:37.561Z,51.90
2018-11-12T03:19:03.369Z,52.00
2018-11-12T03:21:29.191Z,52.00
2018-11-12T03:23:55.003Z,52.00
2018-11-12T03:26:20.823Z,51.90
2018-11-12T03:28:46.640Z,52.10
2018-11-12T03:31:12.473Z,52.10
2018-11-12T03:33:38.691Z,52.10
2018-11-12T03:36:04.496Z,52.20
2018-11-12T03:38:30.325Z,52.20
2018-11-12T03:40:56.142Z,52.20
2018-11-12T03:43:21.952Z,52.60
2018-11-12T03:45:47.764Z,52.10
2018-11-12T03:48:13.595Z,52.20
2018-11-12T03:50:43.039Z,52.30
2018-11-12T03:53:08.814Z,52.20
2018-11-12T03:55:34.600Z,52.30
2018-11-12T03:58:00.415Z,52.30
2018-11-12T04:00:26.216Z,52.40
2018-11-12T04:02:52.183Z,52.20
2018-11-12T04:05:18.001Z,52.20
2018-11-12T04:07:43.813Z,52.10
2018-11-12T04:10:09.624Z,52.10
2018-11-12T04:12:35.451Z,52.10
2018-11-12T04:15:01.269Z,52.20
2018-11-12T04:17:27.487Z,52.10
2018-11-12T04:19:53.303Z,52.00
2018-11-12T04:22:19.115Z,52.10
2018-11-12T04:24:44.939Z,52.10
2018-11-12T04:27:10.760Z,52.10
2018-11-12T04:29:36.577Z,52.10
2018-11-12T04:32:02.397Z,52.20
2018-11-12T04:34:28.207Z,52.20
2018-11-12T04:36:54.027Z,52.40
2018-11-12T04:39:20.256Z,52.10
2018-11-12T04:41:46.080Z,52.30
2018-11-12T04:44:11.882Z,52.40
2018-11-12T04:46:37.708Z,52.40
2018-11-12T04:49:03.527Z,52.30
2018-11-12T04:51:29.342Z,52.90
2018-11-12T04:53:55.160Z,52.50
2018-11-12T04:56:20.981Z,52.60
2018-11-12T04:58:46.782Z,52.40
2018-11-12T05:01:12.612Z,52.70
2018-11-12T05:03:38.426Z,52.40
2018-11-12T05:06:04.247Z,52.50
2018-11-12T05:08:30.051Z,52.40
2018-11-12T05:10:55.875Z,52.50
2018-11-12T05:13:21.698Z,52.50
2018-11-12T05:15:47.515Z,52.50
2018-11-12T05:18:13.336Z,52.50
2018-11-12T05:20:39.155Z,52.50
2018-11-12T05:23:04.968Z,52.40
2018-11-12T05:25:31.199Z,52.50
2018-11-12T05:27:57.015Z,52.40
2018-11-12T05:30:24.057Z,52.50
2018-11-12T05:32:49.878Z,52.40
2018-11-12T05:35:15.683Z,52.40
2018-11-12T05:37:41.534Z,52.50
2018-11-12T05:40:07.334Z,52.50
2018-11-12T05:42:33.965Z,52.50
2018-11-12T05:45:00.297Z,52.50
2018-11-12T05:47:26.411Z,52.50
2018-11-12T05:49:52.231Z,52.50
2018-11-12T05:52:18.056Z,52.60
2018-11-12T05:54:43.871Z,52.60
2018-11-12T05:57:09.684Z,52.60
2018-11-12T05:59:35.508Z,52.60
2018-11-12T06:02:01.325Z,52.60
2018-11-12T06:04:27.126Z,52.60
2018-11-12T06:06:52.946Z,52.60
2018-11-12T06:09:18.774Z,52.60
2018-11-12T06:11:44.583Z,52.60
2018-11-12T06:14:10.416Z,52.70
2018-11-12T06:16:36.223Z,52.70
2018-11-12T06:19:02.034Z,52.70
2018-11-12T06:21:27.857Z,52.70
2018-11-12T06:23:53.675Z,52.80
2018-11-12T06:26:19.492Z,52.80
2018-11-12T06:28:45.309Z,53.40
2018-11-12T06:31:11.214Z,52.80
2018-11-12T06:33:37.764Z,53.30
2018-11-12T06:36:03.993Z,52.80
2018-11-12T06:38:29.795Z,52.90
2018-11-12T06:40:55.616Z,52.80
2018-11-12T06:43:21.430Z,52.90
2018-11-12T06:45:47.264Z,52.80
2018-11-12T06:48:13.078Z,52.90
2018-11-12T06:50:38.890Z,53.00
2018-11-12T06:53:04.811Z,52.90
2018-11-12T06:55:30.533Z,52.90
2018-11-12T06:57:56.353Z,52.90
2018-11-12T07:00:25.455Z,52.90
2018-11-12T07:02:51.662Z,52.90
2018-11-12T07:05:17.483Z,52.90
2018-11-12T07:07:43.306Z,52.90
2018-11-12T07:10:09.123Z,52.90
2018-11-12T07:12:34.929Z,52.90
2018-11-12T07:15:00.758Z,52.90
2018-11-12T07:17:26.562Z,52.90
2018-11-12T07:19:52.396Z,52.80
2018-11-12T07:22:19.039Z,52.90
2018-11-12T07:24:45.253Z,52.90
2018-11-12T07:27:11.077Z,52.90
2018-11-12T07:29:36.891Z,52.90
2018-11-12T07:32:02.707Z,52.90
2018-11-12T07:34:28.530Z,53.00
2018-11-12T07:36:54.337Z,53.00
2018-11-12T07:39:20.154Z,53.00
2018-11-12T07:41:45.995Z,53.00
2018-11-12T07:44:12.195Z,53.10
2018-11-12T07:46:38.006Z,53.00
2018-11-12T07:49:03.827Z,53.00
2018-11-12T07:51:29.696Z,53.00
2018-11-12T07:53:55.470Z,53.00
2018-11-12T07:56:21.432Z,53.00
2018-11-12T07:58:47.311Z,53.00
2018-11-12T08:01:13.328Z,53.10
2018-11-12T08:03:39.588Z,53.10
2018-11-12T08:06:05.785Z,53.10
2018-11-12T08:08:31.601Z,53.10
2018-11-12T08:10:57.409Z,53.10
2018-11-12T08:13:23.227Z,53.10
2018-11-12T08:15:49.052Z,53.10
2018-11-12T08:18:14.870Z,53.10
2018-11-12T08:20:40.692Z,53.70
2018-11-12T08:23:06.918Z,53.00
2018-11-12T08:25:33.135Z,53.10
2018-11-12T08:27:58.943Z,53.20
2018-11-12T08:30:24.905Z,53.20
2018-11-12T08:32:51.022Z,53.20
2018-11-12T08:35:17.236Z,53.10
2018-11-12T08:37:43.261Z,53.20
2018-11-12T08:40:10.227Z,53.10
2018-11-12T08:42:36.321Z,53.10
2018-11-12T08:45:02.540Z,53.10
2018-11-12T08:47:28.347Z,53.10
2018-11-12T08:49:54.574Z,53.10
2018-11-12T08:52:20.479Z,53.20
2018-11-12T08:54:46.276Z,53.20
2018-11-12T08:57:12.445Z,53.20
2018-11-12T08:59:38.363Z,53.20
2018-11-12T09:02:04.487Z,53.20
2018-11-12T09:04:30.296Z,53.10
2018-11-12T09:06:56.125Z,53.00
2018-11-12T09:09:21.931Z,53.00
2018-11-12T09:11:47.746Z,53.10
2018-11-12T09:14:13.567Z,53.10
2018-11-12T09:16:39.382Z,53.20
2018-11-12T09:19:05.209Z,53.20
2018-11-12T09:21:31.028Z,53.20
2018-11-12T09:23:56.840Z,53.10
2018-11-12T09:26:22.655Z,53.20
2018-11-12T09:28:48.467Z,53.20
2018-11-12T09:31:15.709Z,53.20
2018-11-12T09:33:40.528Z,53.20
2018-11-12T09:36:06.331Z,53.20
2018-11-12T09:38:32.234Z,53.30
2018-11-12T09:40:58.788Z,53.20
2018-11-12T09:43:24.606Z,53.20
2018-11-12T09:45:50.889Z,53.20
2018-11-12T09:48:17.064Z,53.10
2018-11-12T09:50:42.890Z,53.10
2018-11-12T09:53:09.106Z,53.10
2018-11-12T09:55:34.986Z,53.20
2018-11-12T09:58:01.144Z,53.20
2018-11-12T10:00:27.181Z,53.30
2018-11-12T10:02:54.013Z,53.20
2018-11-12T10:05:20.366Z,53.10
2018-11-12T10:07:47.566Z,53.10
2018-11-12T10:10:14.837Z,53.10
2018-11-12T10:12:40.352Z,53.10
2018-11-12T10:15:07.740Z,53.10
2018-11-12T10:17:33.878Z,53.20
2018-11-12T10:19:57.192Z,53.20
2018-11-12T10:22:23.006Z,53.10
2018-11-12T10:24:48.829Z,52.90
2018-11-12T10:27:14.687Z,52.90
2018-11-12T10:29:40.463Z,52.90
2018-11-12T10:32:06.271Z,53.00
2018-11-12T10:34:32.090Z,53.10
2018-11-12T10:36:57.908Z,52.90
2018-11-12T10:39:24.142Z,52.90
2018-11-12T10:41:49.956Z,52.80
2018-11-12T10:44:15.793Z,52.80
2018-11-12T10:46:41.596Z,52.90
2018-11-12T10:49:07.412Z,53.00
2018-11-12T10:51:33.230Z,52.80
2018-11-12T10:53:59.151Z,53.50
2018-11-12T10:56:25.283Z,53.00
2018-11-12T10:58:51.492Z,53.00
2018-11-12T11:01:17.311Z,53.00
2018-11-12T11:03:43.132Z,53.00
2018-11-12T11:06:08.942Z,53.00
2018-11-12T11:08:35.168Z,53.10
2018-11-12T11:11:00.994Z,53.10
2018-11-12T11:13:27.221Z,53.20
2018-11-12T11:15:53.039Z,53.00
2018-11-12T11:18:18.857Z,53.00
2018-11-12T11:20:44.656Z,53.10
2018-11-12T11:23:10.896Z,53.10
2018-11-12T11:25:36.730Z,53.20
2018-11-12T11:28:02.943Z,53.10
2018-11-12T11:30:28.757Z,53.10
2018-11-12T11:32:54.578Z,53.20
2018-11-12T11:35:20.801Z,53.30
2018-11-12T11:37:46.663Z,53.30
2018-11-12T11:40:12.890Z,53.40
2018-11-12T11:42:39.086Z,53.40
2018-11-12T11:45:05.299Z,53.50
2018-11-12T11:47:31.222Z,53.40
2018-11-12T11:49:56.954Z,53.40
2018-11-12T11:52:23.506Z,53.30
2018-11-12T11:54:49.388Z,53.30
2018-11-12T11:57:15.231Z,53.40
2018-11-12T11:59:41.436Z,53.70
2018-11-12T12:02:07.289Z,53.80
2018-11-12T12:04:33.478Z,54.00
2018-11-12T12:06:59.292Z,53.90
2018-11-12T12:09:25.606Z,54.00
2018-11-12T12:11:52.094Z,54.00
2018-11-12T12:14:17.983Z,54.00
2018-11-12T12:16:43.795Z,54.10
2018-11-12T12:19:09.625Z,54.70
2018-11-12T12:21:37.479Z,54.10
2018-11-12T12:24:03.299Z,54.30
2018-11-12T12:26:29.119Z,54.30
2018-11-12T12:28:54.915Z,54.30
2018-11-12T12:31:20.752Z,54.50
2018-11-12T12:33:46.568Z,54.30
2018-11-12T12:36:12.465Z,54.40
2018-11-12T12:38:38.202Z,54.50
2018-11-12T12:41:04.021Z,54.60
2018-11-12T12:43:29.838Z,54.60
2018-11-12T12:45:55.728Z,54.80
2018-11-12T12:48:21.874Z,54.70
2018-11-12T12:50:48.112Z,54.50
2018-11-12T12:53:13.911Z,54.70
2018-11-12T12:55:40.248Z,54.60
2018-11-12T12:58:06.388Z,54.70
2018-11-12T13:00:32.212Z,54.70
2018-11-12T13:02:58.017Z,54.80
2018-11-12T13:05:23.839Z,55.10
2018-11-12T13:07:50.064Z,55.20
2018-11-12T13:10:15.874Z,55.30
2018-11-12T13:12:41.687Z,55.20
2018-11-12T13:15:07.540Z,55.10
2018-11-12T13:17:33.745Z,55.10
2018-11-12T13:19:59.547Z,55.10
2018-11-12T13:22:25.778Z,55.00
2018-11-12T13:24:51.595Z,55.10
2018-11-12T13:27:17.822Z,55.10
2018-11-12T13:29:43.661Z,55.20
2018-11-12T13:32:09.459Z,55.40
2018-11-12T13:34:35.277Z,55.60
2018-11-12T13:37:01.095Z,55.70
2018-11-12T13:39:26.993Z,55.60
2018-11-12T13:41:53.135Z,55.40
2018-11-12T13:44:18.948Z,55.40
2018-11-12T13:46:44.769Z,55.60
2018-11-12T13:49:10.585Z,55.60
2018-11-12T13:51:36.404Z,55.60
2018-11-12T13:54:02.229Z,55.50
2018-11-12T13:56:28.443Z,55.70
2018-11-12T13:58:54.267Z,55.70
2018-11-12T14:01:20.072Z,55.60
2018-11-12T14:03:45.898Z,56.00
2018-11-12T14:06:11.717Z,55.70
2018-11-12T14:08:37.945Z,55.90
2018-11-12T14:11:03.755Z,55.90
2018-11-12T14:13:29.985Z,55.70
2018-11-12T14:15:55.806Z,55.80
2018-11-12T14:18:22.032Z,56.00
2018-11-12T14:20:47.866Z,55.70
2018-11-12T14:23:14.078Z,56.00
2018-11-12T14:25:39.892Z,56.10
2018-11-12T14:28:06.137Z,55.90
2018-11-12T14:30:32.351Z,56.10
2018-11-12T14:32:58.574Z,56.00
2018-11-12T14:35:24.439Z,56.00
2018-11-12T14:37:50.612Z,56.00
2018-11-12T14:40:16.432Z,55.90
2018-11-12T14:42:42.246Z,56.10
2018-11-12T14:45:08.088Z,56.00
2018-11-12T14:47:33.884Z,56.00
2018-11-12T14:49:59.704Z,56.00
2018-11-12T14:52:25.511Z,56.10
2018-11-12T14:54:51.342Z,56.10
2018-11-12T14:57:17.564Z,56.40
2018-11-12T14:59:43.795Z,55.90
2018-11-12T15:02:10.048Z,55.90
2018-11-12T15:04:36.639Z,56.00
2018-11-12T15:07:03.376Z,55.90
2018-11-12T15:09:29.503Z,55.90
2018-11-12T15:11:56.551Z,55.80
2018-11-12T15:14:22.395Z,55.80
2018-11-12T15:16:48.603Z,55.90
2018-11-12T15:19:14.431Z,55.90
2018-11-12T15:21:40.238Z,55.70
2018-11-12T15:24:06.055Z,55.80
2018-11-12T15:26:31.875Z,56.00
2018-11-12T15:28:57.691Z,55.80
2018-11-12T15:31:23.509Z,56.00
2018-11-12T15:33:49.361Z,56.00
2018-11-12T15:36:15.952Z,56.10
2018-11-12T15:38:41.769Z,56.10
2018-11-12T15:41:07.597Z,55.90
2018-11-12T15:43:33.416Z,56.00
2018-11-12T15:45:59.221Z,56.00
2018-11-12T15:48:25.044Z,55.90
2018-11-12T15:50:50.919Z,56.00
2018-11-12T15:53:17.095Z,55.80
2018-11-12T15:55:43.323Z,55.90
2018-11-12T15:58:09.153Z,56.00
2018-11-12T16:00:35.368Z,55.90
2018-11-12T16:03:01.310Z,55.80
2018-11-12T16:05:27.405Z,55.90
2018-11-12T16:07:53.218Z,55.70
2018-11-12T16:10:19.040Z,55.80
2018-11-12T16:12:44.847Z,56.40
2018-11-12T16:15:11.392Z,55.90
2018-11-12T16:17:37.186Z,55.70
2018-11-12T16:20:02.983Z,55.80
2018-11-12T16:22:28.950Z,55.80
2018-11-12T16:24:54.759Z,55.90
2018-11-12T16:27:20.584Z,55.80
2018-11-12T16:29:46.402Z,56.30
2018-11-12T16:32:12.624Z,55.70
2018-11-12T16:34:38.435Z,55.70
2018-11-12T16:37:04.260Z,55.80
2018-11-12T16:39:30.073Z,55.80
2018-11-12T16:41:55.896Z,55.80
2018-11-12T16:44:21.708Z,56.30
2018-11-12T16:46:47.524Z,55.70
2018-11-12T16:49:13.335Z,55.70
2018-11-12T16:51:39.155Z,55.70
2018-11-12T16:54:04.976Z,55.70
2018-11-12T16:56:31.203Z,55.70
2018-11-12T16:58:57.024Z,55.80
2018-11-12T17:01:23.286Z,55.80
2018-11-12T17:03:49.463Z,55.70
2018-11-12T17:06:15.695Z,55.70
2018-11-12T17:08:41.524Z,55.70
2018-11-12T17:11:07.378Z,55.60
2018-11-12T17:13:33.147Z,55.60
2018-11-12T17:15:58.992Z,55.60
2018-11-12T17:18:25.197Z,55.50
2018-11-12T17:20:51.016Z,55.60
2018-11-12T17:23:16.834Z,55.50
2018-11-12T17:25:42.652Z,55.60
2018-11-12T17:28:08.471Z,55.50
2018-11-12T17:30:34.287Z,55.50
2018-11-12T17:33:00.109Z,55.40
2018-11-12T17:35:25.908Z,55.50
2018-11-12T17:37:51.728Z,55.50
2018-11-12T17:40:17.556Z,55.50
2018-11-12T17:42:43.796Z,55.50
2018-11-12T17:45:10.008Z,55.60
2018-11-12T17:47:36.232Z,55.60
2018-11-12T17:50:02.049Z,55.60
2018-11-12T17:52:27.869Z,55.60
2018-11-12T17:54:53.684Z,55.50
2018-11-12T17:57:19.496Z,55.50
2018-11-12T17:59:45.326Z,55.50
2018-11-12T18:02:11.549Z,55.40
2018-11-12T18:04:37.383Z,55.40
2018-11-12T18:07:03.667Z,55.40
2018-11-12T18:09:29.827Z,55.40
2018-11-12T18:11:55.626Z,55.50
2018-11-12T18:14:21.455Z,55.50
2018-11-12T18:16:47.259Z,55.50
2018-11-12T18:19:13.091Z,55.50
2018-11-12T18:21:38.922Z,55.50
2018-11-12T18:24:05.136Z,55.40
2018-11-12T18:26:31.360Z,55.40
2018-11-12T18:28:57.162Z,55.40
2018-11-12T18:31:23.112Z,55.30
2018-11-12T18:33:49.222Z,55.40
2018-11-12T18:36:15.031Z,55.30
2018-11-12T18:38:40.854Z,55.40
2018-11-12T18:41:06.670Z,55.30
2018-11-12T18:43:32.591Z,55.30
2018-11-12T18:45:59.124Z,55.60
2018-11-12T18:48:25.355Z,55.20
2018-11-12T18:50:51.172Z,55.30
2018-11-12T18:53:16.982Z,55.30
2018-11-12T18:55:42.801Z,55.30
2018-11-12T18:58:08.610Z,55.20
2018-11-12T19:00:34.423Z,55.20
2018-11-12T19:03:00.246Z,55.20
2018-11-12T19:05:26.136Z,55.10
2018-11-12T19:07:52.296Z,55.00
2018-11-12T19:10:18.106Z,55.20
2018-11-12T19:12:43.935Z,55.10
2018-11-12T19:15:09.753Z,55.20
2018-11-12T19:17:35.565Z,55.20
2018-11-12T19:20:01.384Z,55.20
2018-11-12T19:22:27.200Z,55.20
2018-11-12T19:24:53.009Z,55.30
2018-11-12T19:27:18.962Z,55.30
2018-11-12T19:29:45.058Z,55.40
2018-11-12T19:32:10.871Z,55.30
2018-11-12T19:34:36.694Z,55.30
2018-11-12T19:37:02.510Z,55.30
2018-11-12T19:39:28.736Z,55.30
2018-11-12T19:41:54.557Z,55.30
2018-11-12T19:44:20.370Z,55.20
2018-11-12T19:46:46.191Z,55.30
2018-11-12T19:49:12.012Z,55.20
2018-11-12T19:51:37.855Z,55.30
2018-11-12T19:54:04.039Z,55.30
2018-11-12T19:56:29.871Z,55.30
2018-11-12T19:58:55.731Z,55.10
2018-11-12T20:01:22.268Z,55.00
2018-11-12T20:03:48.136Z,55.00
2018-11-12T20:06:13.963Z,55.00
2018-11-12T20:08:39.771Z,55.00
2018-11-12T20:11:05.597Z,54.90
2018-11-12T20:13:31.415Z,55.00
2018-11-12T20:15:57.226Z,55.10
2018-11-12T20:18:23.055Z,55.00
2018-11-12T20:20:49.258Z,55.10
2018-11-12T20:23:15.088Z,55.10
2018-11-12T20:25:41.304Z,55.20
2018-11-12T20:28:07.136Z,55.10
2018-11-12T20:30:32.945Z,55.10
2018-11-12T20:32:58.781Z,55.10
2018-11-12T20:35:24.988Z,55.10
2018-11-12T20:37:55.726Z,55.10
2018-11-12T20:40:21.542Z,55.20
2018-11-12T20:42:47.342Z,55.10
2018-11-12T20:45:13.271Z,55.00
2018-11-12T20:47:39.407Z,55.60
2018-11-12T20:50:05.218Z,55.00
2018-11-12T20:52:31.072Z,55.00
2018-11-12T20:54:57.265Z,55.00
2018-11-12T20:57:23.530Z,55.10
2018-11-12T20:59:50.128Z,55.10
2018-11-12T21:02:15.941Z,55.10
2018-11-12T21:04:41.767Z,55.10
2018-11-12T21:07:07.563Z,55.10
2018-11-12T21:09:33.406Z,55.00
2018-11-12T21:11:59.615Z,55.00
2018-11-12T21:14:25.440Z,55.00
2018-11-12T21:16:51.257Z,55.00
2018-11-12T21:19:17.112Z,55.00
2018-11-12T21:21:43.703Z,55.00
2018-11-12T21:24:09.518Z,55.50
2018-11-12T21:26:35.338Z,54.90
2018-11-12T21:29:01.228Z,54.80
2018-11-12T21:31:27.381Z,54.90
2018-11-12T21:33:53.200Z,55.50
2018-11-12T21:36:19.015Z,55.00
2018-11-12T21:38:44.852Z,54.80
2018-11-12T21:41:10.667Z,54.80
2018-11-12T21:43:36.610Z,54.80
2018-11-12T21:46:02.699Z,54.80
2018-11-12T21:48:28.511Z,54.80
2018-11-12T21:50:54.326Z,54.80
2018-11-12T21:53:20.138Z,54.70
2018-11-12T21:55:45.970Z,54.70
2018-11-12T21:58:11.785Z,54.80
2018-11-12T22:00:37.593Z,54.80
2018-11-12T22:03:03.419Z,54.90
2018-11-12T22:05:29.239Z,55.00
2018-11-12T22:07:55.047Z,54.80
2018-11-12T22:10:20.860Z,54.80
2018-11-12T22:12:46.717Z,54.60
2018-11-12T22:15:12.806Z,54.70
2018-11-12T22:17:38.744Z,54.70
2018-11-12T22:20:04.974Z,54.60
2018-11-12T22:22:31.186Z,54.60
2018-11-12T22:24:57.403Z,54.50
2018-11-12T22:27:23.263Z,54.60
2018-11-12T22:29:49.451Z,54.60
2018-11-12T22:32:15.796Z,54.70
2018-11-12T22:34:41.909Z,54.70
2018-11-12T22:37:07.723Z,54.70
2018-11-12T22:39:33.538Z,54.70
2018-11-12T22:41:59.362Z,54.80
2018-11-12T22:44:25.370Z,54.80
2018-11-12T22:46:51.401Z,54.80
2018-11-12T22:49:17.217Z,54.80
2018-11-12T22:51:43.032Z,54.80
2018-11-12T22:54:08.943Z,54.80
2018-11-12T22:56:35.075Z,54.70
2018-11-12T22:59:00.882Z,54.70
2018-11-12T23:01:26.708Z,54.90
2018-11-12T23:03:52.523Z,55.30
2018-11-12T23:06:18.342Z,54.80
2018-11-12T23:08:44.135Z,54.70
2018-11-12T23:11:09.977Z,54.90
2018-11-12T23:13:35.787Z,54.90
2018-11-12T23:16:02.015Z,54.90
2018-11-12T23:18:27.834Z,54.90
2018-11-12T23:20:54.060Z,54.90
2018-11-12T23:23:19.877Z,54.80
2018-11-12T23:25:46.104Z,54.80
2018-11-12T23:28:11.927Z,54.70
2018-11-12T23:30:38.141Z,54.70
2018-11-12T23:33:03.959Z,54.80
2018-11-12T23:35:29.780Z,54.70
2018-11-12T23:37:55.596Z,54.70
2018-11-12T23:40:21.417Z,54.60
2018-11-12T23:42:47.231Z,54.50
2018-11-12T23:45:13.039Z,54.50
2018-11-12T23:47:38.865Z,54.50
2018-11-12T23:50:04.685Z,54.50
2018-11-12T23:52:30.903Z,54.60
2018-11-12T23:54:56.719Z,54.60
2018-11-12T23:57:22.531Z,54.60
2018-11-12T23:59:48.359Z,54.60
